createdAt,value
2023-03-07T00:01:26.568Z,96457.09
2023-03-07T00:03:55.108Z,96452.53
2023-03-07T00:06:25.531Z,96457.78
2023-03-07T00:08:56.511Z,96446.44
2023-03-07T00:11:25.103Z,96440.50
2023-03-07T00:13:54.191Z,96454.59
2023-03-07T00:16:24.827Z,96444.09
2023-03-07T00:18:53.454Z,96447.56
2023-03-07T00:21:24.889Z,96452.97
2023-03-07T00:23:54.497Z,96442.44
2023-03-07T00:26:25.076Z,96453.81
2023-03-07T00:28:55.095Z,96457.25
2023-03-07T00:31:24.434Z,96436.34
2023-03-07T00:33:53.281Z,96444.78
2023-03-07T00:36:23.109Z,96449.34
2023-03-07T00:38:53.613Z,96450.88
2023-03-07T00:41:24.039Z,96436.75
2023-03-07T00:43:52.888Z,96430.66
2023-03-07T00:46:24.304Z,96426.22
2023-03-07T00:48:53.396Z,96428.88
2023-03-07T00:51:23.617Z,96427.88
2023-03-07T00:53:53.544Z,96428.72
2023-03-07T00:56:24.304Z,96426.94
2023-03-07T00:58:53.799Z,96410.16
2023-03-07T01:01:24.879Z,96404.22
2023-03-07T01:03:54.396Z,96406.84
2023-03-07T01:06:26.057Z,96398.97
2023-03-07T01:08:58.947Z,96403.41
2023-03-07T01:11:27.787Z,96409.47
2023-03-07T01:13:57.491Z,96396.31
2023-03-07T01:16:28.746Z,96404.06
2023-03-07T01:19:00.107Z,96390.78
2023-03-07T01:21:30.664Z,96387.19
2023-03-07T01:24:00.859Z,96394.94
2023-03-07T01:26:31.614Z,96384.41
2023-03-07T01:29:02.291Z,96386.19
2023-03-07T01:31:32.637Z,96384.41
2023-03-07T01:34:02.384Z,96385.22
2023-03-07T01:36:33.371Z,96372.91
2023-03-07T01:39:07.361Z,96374.41
2023-03-07T01:41:37.509Z,96377.03
2023-03-07T01:44:16.280Z,96371.63
2023-03-07T01:46:53.164Z,96367.19
2023-03-07T01:49:27.188Z,96353.22
2023-03-07T01:52:04.263Z,96355.34
2023-03-07T01:54:38.639Z,96365.84
2023-03-07T01:57:07.784Z,96360.75
2023-03-07T01:59:41.665Z,96365.31
2023-03-07T02:02:14.249Z,96353.97
2023-03-07T02:04:46.192Z,96341.94
2023-03-07T02:07:15.221Z,96349.31
2023-03-07T02:09:47.837Z,96348.50
2023-03-07T02:12:16.807Z,96340.75
2023-03-07T02:14:47.503Z,96345.31
2023-03-07T02:17:15.818Z,96328.88
2023-03-07T02:20:01.502Z,96336.09
2023-03-07T02:22:30.554Z,96329.16
2023-03-07T02:25:04.229Z,96328.34
2023-03-07T02:27:37.559Z,96318.28
2023-03-07T02:30:07.803Z,96327.81
2023-03-07T02:32:36.065Z,96317.59
2023-03-07T02:35:12.538Z,96321.34
2023-03-07T02:37:42.156Z,96319.56
2023-03-07T02:40:14.467Z,96311.00
2023-03-07T02:42:45.414Z,96313.63
2023-03-07T02:45:16.958Z,96314.75
2023-03-07T02:47:46.414Z,96313.91
2023-03-07T02:50:16.222Z,96325.72
2023-03-07T02:52:44.810Z,96318.28
2023-03-07T02:55:13.365Z,96323.53
2023-03-07T02:57:43.036Z,96317.56
2023-03-07T03:00:13.250Z,96319.78
2023-03-07T03:02:41.556Z,96310.25
2023-03-07T03:05:10.713Z,96312.19
2023-03-07T03:07:39.209Z,96313.16
2023-03-07T03:10:09.047Z,96315.81
2023-03-07T03:12:37.271Z,96323.81
2023-03-07T03:15:08.961Z,96316.78
2023-03-07T03:17:37.500Z,96320.22
2023-03-07T03:20:08.892Z,96312.19
2023-03-07T03:22:37.134Z,96316.78
2023-03-07T03:25:06.641Z,96312.34
2023-03-07T03:27:35.006Z,96316.50
2023-03-07T03:30:04.651Z,96307.09
2023-03-07T03:32:34.486Z,96320.91
2023-03-07T03:35:02.757Z,96317.44
2023-03-07T03:37:31.626Z,96311.38
2023-03-07T03:39:59.888Z,96307.78
2023-03-07T03:42:28.168Z,96312.88
2023-03-07T03:44:56.430Z,96314.38
2023-03-07T03:47:24.666Z,96321.31
2023-03-07T03:49:54.289Z,96321.31
2023-03-07T03:52:23.478Z,96309.69
2023-03-07T03:54:51.720Z,96305.53
2023-03-07T03:57:20.681Z,96308.06
2023-03-07T03:59:49.249Z,96310.69
2023-03-07T04:02:17.652Z,96314.13
2023-03-07T04:04:46.102Z,96303.59
2023-03-07T04:07:15.692Z,96307.91
2023-03-07T04:09:44.139Z,96306.09
2023-03-07T04:12:12.378Z,96303.16
2023-03-07T04:14:40.649Z,96305.63
2023-03-07T04:17:08.843Z,96299.28
2023-03-07T04:19:37.092Z,96306.03
2023-03-07T04:22:05.608Z,96303.94
2023-03-07T04:24:35.228Z,96304.59
2023-03-07T04:27:03.460Z,96290.81
2023-03-07T04:29:31.919Z,96299.03
2023-03-07T04:32:00.261Z,96292.00
2023-03-07T04:34:28.592Z,96296.28
2023-03-07T04:36:56.804Z,96289.06
2023-03-07T04:39:25.028Z,96281.19
2023-03-07T04:41:54.634Z,96280.34
2023-03-07T04:44:22.913Z,96278.56
2023-03-07T04:46:51.136Z,96285.75
2023-03-07T04:49:19.411Z,96281.47
2023-03-07T04:51:47.657Z,96280.66
2023-03-07T04:54:15.895Z,96287.69
2023-03-07T04:56:44.238Z,96284.56
2023-03-07T04:59:13.817Z,96276.13
2023-03-07T05:01:42.179Z,96266.91
2023-03-07T05:04:10.414Z,96270.66
2023-03-07T05:06:38.723Z,96277.31
2023-03-07T05:09:07.048Z,96270.69
2023-03-07T05:11:35.315Z,96279.03
2023-03-07T05:14:03.518Z,96269.78
2023-03-07T05:16:33.608Z,96279.06
2023-03-07T05:19:02.925Z,96278.84
2023-03-07T05:21:32.655Z,96272.22
2023-03-07T05:24:00.980Z,96278.88
2023-03-07T05:26:29.188Z,96273.41
2023-03-07T05:28:57.468Z,96279.09
2023-03-07T05:31:26.329Z,96278.56
2023-03-07T05:33:56.097Z,96274.59
2023-03-07T05:36:24.749Z,96283.56
2023-03-07T05:38:53.638Z,96285.66
2023-03-07T05:41:21.892Z,96283.31
2023-03-07T05:43:50.304Z,96285.13
2023-03-07T05:46:18.645Z,96292.00
2023-03-07T05:48:46.898Z,96279.16
2023-03-07T05:51:16.669Z,96278.38
2023-03-07T05:53:46.508Z,96288.88
2023-03-07T05:56:15.107Z,96286.25
2023-03-07T05:58:43.404Z,96295.06
2023-03-07T06:01:11.611Z,96286.25
2023-03-07T06:03:39.953Z,96287.19
2023-03-07T06:06:09.181Z,96290.66
2023-03-07T06:08:38.793Z,96289.81
2023-03-07T06:11:07.358Z,96287.34
2023-03-07T06:13:35.662Z,96288.31
2023-03-07T06:16:04.064Z,96297.03
2023-03-07T06:18:32.374Z,96286.38
2023-03-07T06:21:03.293Z,96289.81
2023-03-07T06:23:34.073Z,96288.88
2023-03-07T06:26:04.789Z,96289.53
2023-03-07T06:28:33.408Z,96285.81
2023-03-07T06:31:02.124Z,96287.44
2023-03-07T06:33:30.407Z,96288.81
2023-03-07T06:35:58.651Z,96281.47
2023-03-07T06:38:27.961Z,96288.91
2023-03-07T06:40:59.309Z,96291.41
2023-03-07T06:43:29.273Z,96285.00
2023-03-07T06:45:57.786Z,96291.50
2023-03-07T06:48:26.732Z,96283.03
2023-03-07T06:50:54.970Z,96286.03
2023-03-07T06:53:23.301Z,96287.25
2023-03-07T06:55:52.715Z,96280.75
2023-03-07T06:58:20.981Z,96273.91
2023-03-07T07:00:50.572Z,96277.09
2023-03-07T07:03:21.019Z,96277.38
2023-03-07T07:05:49.317Z,96272.91
2023-03-07T07:08:17.652Z,96272.59
2023-03-07T07:10:46.024Z,96265.78
2023-03-07T07:13:15.112Z,96266.81
2023-03-07T07:15:43.364Z,96279.38
2023-03-07T07:18:14.957Z,96268.25
2023-03-07T07:20:43.272Z,96279.84
2023-03-07T07:23:11.562Z,96284.50
2023-03-07T07:25:40.233Z,96284.34
2023-03-07T07:28:08.498Z,96286.81
2023-03-07T07:30:36.768Z,96292.44
2023-03-07T07:33:05.308Z,96279.81
2023-03-07T07:35:35.085Z,96277.88
2023-03-07T07:38:03.543Z,96286.94
2023-03-07T07:40:31.888Z,96276.78
2023-03-07T07:43:00.140Z,96273.03
2023-03-07T07:45:28.488Z,96276.00
2023-03-07T07:47:56.752Z,96269.34
2023-03-07T07:50:25.553Z,96271.34
2023-03-07T07:52:56.025Z,96275.16
2023-03-07T07:55:25.238Z,96266.34
2023-03-07T07:57:53.785Z,96272.47
2023-03-07T08:00:22.804Z,96265.13
2023-03-07T08:02:51.900Z,96260.06
2023-03-07T08:05:21.704Z,96268.53
2023-03-07T08:07:50.808Z,96265.47
2023-03-07T08:10:21.793Z,96255.94
2023-03-07T08:12:52.476Z,96260.09
2023-03-07T08:15:22.353Z,96256.50
2023-03-07T08:17:51.429Z,96258.81
2023-03-07T08:20:22.378Z,96259.69
2023-03-07T08:22:52.895Z,96263.38
2023-03-07T08:25:25.170Z,96258.91
2023-03-07T08:27:55.270Z,96252.84
2023-03-07T08:30:24.703Z,96258.28
2023-03-07T08:32:54.388Z,96248.91
2023-03-07T08:35:23.101Z,96245.63
2023-03-07T08:37:56.854Z,96243.13
2023-03-07T08:40:27.360Z,96251.56
2023-03-07T08:42:56.143Z,96254.69
2023-03-07T08:45:24.827Z,96242.16
2023-03-07T08:47:54.818Z,96243.31
2023-03-07T08:50:24.472Z,96242.34
2023-03-07T08:52:52.921Z,96243.63
2023-03-07T08:55:21.392Z,96245.94
2023-03-07T08:57:51.117Z,96239.84
2023-03-07T09:00:20.828Z,96235.41
2023-03-07T09:02:49.172Z,96234.91
2023-03-07T09:05:17.631Z,96232.91
2023-03-07T09:07:45.880Z,96235.53
2023-03-07T09:10:14.185Z,96229.25
2023-03-07T09:12:42.419Z,96221.84
2023-03-07T09:15:12.747Z,96215.72
2023-03-07T09:17:41.171Z,96218.69
2023-03-07T09:20:11.814Z,96212.09
2023-03-07T09:22:40.224Z,96205.47
2023-03-07T09:25:09.514Z,96210.88
2023-03-07T09:27:37.900Z,96209.53
2023-03-07T09:30:08.148Z,96208.94
2023-03-07T09:32:38.050Z,96201.91
2023-03-07T09:35:07.446Z,96201.16
2023-03-07T09:37:35.746Z,96201.25
2023-03-07T09:40:07.243Z,96194.31
2023-03-07T09:42:46.445Z,96185.44
2023-03-07T09:45:34.870Z,96182.66
2023-03-07T09:48:47.167Z,96181.88
2023-03-07T09:51:20.075Z,96172.22
2023-03-07T09:53:53.196Z,96167.31
2023-03-07T09:56:26.516Z,96168.75
2023-03-07T09:59:08.538Z,96166.03
2023-03-07T10:01:43.955Z,96162.66
2023-03-07T10:04:23.101Z,96160.47
2023-03-07T10:06:58.285Z,96166.78
2023-03-07T10:09:27.306Z,96149.75
2023-03-07T10:12:28.482Z,96154.22
2023-03-07T10:15:20.189Z,96149.25
2023-03-07T10:18:09.126Z,96140.84
2023-03-07T10:20:47.361Z,96135.81
2023-03-07T10:23:32.555Z,96139.34
2023-03-07T10:26:09.509Z,96138.78
2023-03-07T12:35:05.703Z,95875.91
2023-03-07T12:37:43.600Z,95867.22
2023-03-07T12:40:21.457Z,95870.41
2023-03-07T12:42:58.476Z,95858.03
2023-03-07T12:45:29.825Z,95845.44
2023-03-07T12:48:07.317Z,95843.88
2023-03-07T12:50:46.772Z,95853.84
2023-03-07T12:53:24.640Z,95843.34
2023-03-07T12:55:58.564Z,95848.63
2023-03-07T12:58:38.541Z,95835.94
2023-03-07T13:01:15.468Z,95831.16
2023-03-07T13:03:52.144Z,95850.19
2023-03-07T13:06:23.933Z,95840.78
2023-03-07T13:08:55.504Z,95841.97
2023-03-07T13:11:27.654Z,95856.13
2023-03-07T13:13:59.464Z,95842.84
2023-03-07T13:16:43.528Z,95843.34
2023-03-07T13:20:04.946Z,95841.13
2023-03-07T13:23:14.534Z,95836.59
2023-03-07T13:25:58.164Z,95833.34
2023-03-07T13:28:51.237Z,95829.63
2023-03-07T13:31:43.661Z,95824.13
2023-03-07T13:34:51.675Z,95828.34
2023-03-07T13:37:54.342Z,95822.16
2023-03-07T13:40:58.513Z,95829.94
2023-03-07T13:44:01.449Z,95838.31
2023-03-07T13:46:58.719Z,95827.88
2023-03-07T13:49:44.359Z,95833.22
2023-03-07T13:52:39.150Z,95821.47
2023-03-07T13:55:25.790Z,95822.75
2023-03-07T13:57:59.257Z,95828.09
2023-03-07T14:00:39.495Z,95824.91
2023-03-07T14:03:27.934Z,95815.66
2023-03-07T14:05:59.964Z,95826.56
2023-03-07T14:08:35.544Z,95816.75
2023-03-07T14:11:04.310Z,95825.19
2023-03-07T14:14:16.462Z,95815.66
2023-03-07T14:17:13.649Z,95817.75
2023-03-07T14:19:56.417Z,95822.88
2023-03-07T14:22:55.983Z,95810.41
2023-03-07T14:25:26.414Z,95809.81
2023-03-07T14:27:58.620Z,95811.53
2023-03-07T14:30:31.481Z,95809.09
2023-03-07T14:33:00.897Z,95810.25
2023-03-07T14:35:42.680Z,95811.34
2023-03-07T14:38:21.077Z,95817.34
2023-03-07T14:41:22.075Z,95807.38
2023-03-07T14:44:03.898Z,95813.16
2023-03-07T14:46:43.025Z,95818.53
2023-03-07T14:49:24.770Z,95823.44
2023-03-07T14:51:53.149Z,95820.84
2023-03-07T14:54:27.880Z,95817.34
2023-03-07T14:56:56.436Z,95815.50
2023-03-07T14:59:29.090Z,95819.25
2023-03-07T15:02:00.113Z,95818.84
2023-03-07T15:04:30.763Z,95821.31
2023-03-07T15:07:01.302Z,95821.94
2023-03-07T15:09:30.591Z,95831.97
2023-03-07T15:12:06.044Z,95821.34
2023-03-07T15:14:46.034Z,95827.50
2023-03-07T15:17:20.413Z,95826.69
2023-03-07T15:19:51.843Z,95832.00
2023-03-07T15:22:25.689Z,95829.56
2023-03-07T15:24:54.665Z,95832.81
2023-03-07T15:27:26.664Z,95841.41
2023-03-07T15:29:56.314Z,95849.19
2023-03-07T15:32:36.086Z,95843.88
2023-03-07T15:35:17.193Z,95848.16
2023-03-07T15:37:56.924Z,95852.59
2023-03-07T15:40:30.915Z,95847.50
2023-03-07T15:43:15.261Z,95841.38
2023-03-07T15:45:45.792Z,95837.25
2023-03-07T15:48:28.119Z,95853.59
2023-03-07T15:50:58.998Z,95840.69
2023-03-07T15:53:31.327Z,95850.09
2023-03-07T15:56:02.267Z,95856.38
2023-03-07T15:58:33.754Z,95853.72
2023-03-07T16:01:19.654Z,95858.41
2023-03-07T16:03:54.344Z,95866.97
2023-03-07T16:06:38.167Z,95858.78
2023-03-07T16:09:07.192Z,95862.03
2023-03-07T16:11:38.046Z,95857.31
2023-03-07T16:14:06.554Z,95860.75
2023-03-07T16:16:34.931Z,95862.97
2023-03-07T16:19:04.583Z,95859.91
2023-03-07T16:21:32.837Z,95868.06
2023-03-07T16:24:01.124Z,95864.78
2023-03-07T16:26:29.948Z,95869.69
2023-03-07T16:28:58.264Z,95865.56
2023-03-07T16:31:26.659Z,95863.28
2023-03-07T16:33:55.938Z,95866.34
2023-03-07T16:36:25.568Z,95864.09
2023-03-07T16:38:53.839Z,95871.63
2023-03-07T16:41:23.418Z,95883.78
2023-03-07T16:43:55.585Z,95885.19
2023-03-07T16:46:25.433Z,95882.31
2023-03-07T16:48:53.710Z,95878.59
2023-03-07T16:51:26.052Z,95877.56
2023-03-07T16:53:56.719Z,95873.03
2023-03-07T16:56:32.465Z,95874.16
2023-03-07T16:59:01.760Z,95880.06
2023-03-07T17:01:30.176Z,95880.81
2023-03-07T17:03:58.465Z,95886.88
2023-03-07T17:06:38.828Z,95889.47
2023-03-07T17:09:09.492Z,95893.06
2023-03-07T17:11:39.370Z,95893.59
2023-03-07T17:14:10.127Z,95898.63
2023-03-07T17:16:44.882Z,95899.56
2023-03-07T17:19:28.525Z,95903.34
2023-03-07T17:22:01.871Z,95911.44
2023-03-07T17:24:31.226Z,95903.41
2023-03-07T17:27:03.545Z,95919.41
2023-03-07T17:29:37.344Z,95918.66
2023-03-07T17:32:06.748Z,95919.59
2023-03-07T17:34:37.093Z,95928.25
2023-03-07T17:37:08.181Z,95935.31
2023-03-07T17:39:36.728Z,95939.53
2023-03-07T17:42:05.576Z,95948.38
2023-03-07T17:44:34.777Z,95952.75
2023-03-07T17:47:03.056Z,95957.13
2023-03-07T17:49:35.431Z,95964.16
2023-03-07T17:52:06.667Z,95975.63
2023-03-07T17:54:35.112Z,95981.81
2023-03-07T17:57:04.216Z,95988.81
2023-03-07T17:59:33.515Z,95991.53
2023-03-07T18:02:02.048Z,95995.06
2023-03-07T18:04:31.391Z,95993.13
2023-03-07T18:06:59.818Z,96006.09
2023-03-07T18:09:29.531Z,96000.50
2023-03-07T18:11:58.168Z,96002.38
2023-03-07T18:14:26.707Z,96011.81
2023-03-07T18:16:55.188Z,96010.72
2023-03-07T18:19:27.053Z,96008.75
2023-03-07T18:21:56.273Z,96007.81
2023-03-07T18:24:29.976Z,96010.31
2023-03-07T18:27:00.168Z,96004.94
2023-03-07T18:29:29.521Z,96016.97
2023-03-07T18:31:57.890Z,96008.78
2023-03-07T18:34:26.269Z,96020.84
2023-03-07T18:36:54.904Z,96020.56
2023-03-07T18:39:24.888Z,96020.41
2023-03-07T18:41:54.585Z,96021.09
2023-03-07T18:44:22.892Z,96020.81
2023-03-07T18:46:51.340Z,96024.94
2023-03-07T18:49:19.718Z,96025.44
2023-03-07T18:51:48.577Z,96023.31
2023-03-07T18:54:16.972Z,96024.81
2023-03-07T18:56:47.871Z,96024.53
2023-03-07T18:59:18.560Z,96035.59
2023-03-07T19:01:50.189Z,96033.63
2023-03-07T19:04:19.072Z,96043.84
2023-03-07T19:06:48.271Z,96054.91
2023-03-07T19:09:18.752Z,96051.13
2023-03-07T19:11:47.619Z,96060.50
2023-03-07T19:14:17.352Z,96060.22
2023-03-07T19:16:46.399Z,96065.97
2023-03-07T19:19:14.956Z,96070.91
2023-03-07T19:21:43.401Z,96075.88
2023-03-07T19:24:13.102Z,96071.09
2023-03-07T19:26:42.758Z,96076.03
2023-03-07T19:29:12.665Z,96074.72
2023-03-07T19:31:43.976Z,96081.59
2023-03-07T19:34:13.029Z,96085.38
2023-03-07T19:36:42.483Z,96078.31
2023-03-07T19:39:15.123Z,96091.63
2023-03-07T19:41:45.407Z,96090.31
2023-03-07T19:44:13.737Z,96095.09
2023-03-07T19:46:46.365Z,96101.50
2023-03-07T19:49:15.557Z,96100.84
2023-03-07T19:51:44.077Z,96100.19
2023-03-07T19:54:15.016Z,96091.78
2023-03-07T19:56:45.018Z,96095.41
2023-03-07T19:59:14.709Z,96093.91
2023-03-07T20:01:44.747Z,96093.28
2023-03-07T20:04:13.697Z,96105.59
2023-03-07T20:06:43.366Z,96097.19
2023-03-07T20:09:13.068Z,96101.81
2023-03-07T20:11:43.378Z,96103.78
2023-03-07T20:14:13.253Z,96099.00
2023-03-07T20:16:43.500Z,96106.22
2023-03-07T20:19:11.933Z,96106.69
2023-03-07T20:21:42.400Z,96110.47
2023-03-07T20:24:10.902Z,96116.06
2023-03-07T20:26:40.742Z,96124.28
2023-03-07T20:29:10.819Z,96120.00
2023-03-07T20:31:40.310Z,96121.13
2023-03-07T20:34:10.125Z,96117.03
2023-03-07T20:36:39.742Z,96115.53
2023-03-07T20:39:14.343Z,96113.22
2023-03-07T20:41:44.074Z,96108.97
2023-03-07T20:44:15.186Z,96107.44
2023-03-07T20:46:44.324Z,96111.91
2023-03-07T20:49:16.340Z,96125.88
2023-03-07T20:51:44.896Z,96125.06
2023-03-07T20:54:15.600Z,96131.13
2023-03-07T20:56:45.634Z,96125.06
2023-03-07T20:59:16.434Z,96124.06
2023-03-07T21:01:45.378Z,96127.69
2023-03-07T21:04:18.472Z,96133.91
2023-03-07T21:06:48.586Z,96133.75
2023-03-07T21:09:18.888Z,96132.81
2023-03-07T21:11:49.121Z,96122.28
2023-03-07T21:14:19.343Z,96128.34
2023-03-07T21:16:47.857Z,96129.19
2023-03-07T21:19:17.581Z,96128.19
2023-03-07T21:21:46.249Z,96124.97
2023-03-07T21:24:15.608Z,96128.28
2023-03-07T21:26:44.145Z,96130.38
2023-03-07T21:29:13.908Z,96127.44
2023-03-07T21:31:42.343Z,96130.69
2023-03-07T21:34:15.166Z,96123.28
2023-03-07T21:36:46.038Z,96124.44
2023-03-07T21:39:14.447Z,96116.84
2023-03-07T21:41:42.739Z,96128.50
2023-03-07T21:44:11.655Z,96120.91
2023-03-07T21:46:39.941Z,96126.50
2023-03-07T21:49:08.496Z,96133.59
2023-03-07T21:51:36.732Z,96124.03
2023-03-07T21:54:06.634Z,96122.06
2023-03-07T21:56:34.940Z,96124.19
2023-03-07T21:59:03.265Z,96127.81
2023-03-07T22:01:31.625Z,96134.88
2023-03-07T22:04:01.094Z,96129.91
2023-03-07T22:06:29.924Z,96131.59
2023-03-07T22:08:59.625Z,96125.28
2023-03-07T22:11:29.264Z,96129.22
2023-03-07T22:13:57.578Z,96127.44
2023-03-07T22:16:25.942Z,96113.44
2023-03-07T22:18:56.323Z,96120.81
2023-03-07T22:21:26.608Z,96111.75
2023-03-07T22:23:57.688Z,96125.56
2023-03-07T22:26:29.062Z,96118.31
2023-03-07T22:28:57.573Z,96117.47
2023-03-07T22:31:26.871Z,96136.50
2023-03-07T22:33:55.286Z,96134.59
2023-03-07T22:36:23.555Z,96129.84
2023-03-07T22:38:56.270Z,96144.69
2023-03-07T22:41:26.501Z,96142.44
2023-03-07T22:43:56.204Z,96143.44
2023-03-07T22:46:24.788Z,96136.56
2023-03-07T22:48:54.752Z,96122.75
2023-03-07T22:51:24.761Z,96135.28
2023-03-07T22:53:53.604Z,96144.19
2023-03-07T22:56:24.291Z,96142.06
2023-03-07T22:58:52.767Z,96132.06
2023-03-07T23:01:25.099Z,96144.91
2023-03-07T23:03:55.550Z,96145.56
2023-03-07T23:06:27.018Z,96152.81
2023-03-07T23:08:55.607Z,96154.97
2023-03-07T23:11:25.829Z,96150.19
2023-03-07T23:13:54.755Z,96154.97
2023-03-07T23:16:26.763Z,96163.38
2023-03-07T23:18:58.334Z,96175.22
2023-03-07T23:21:30.068Z,96170.66
2023-03-07T23:23:59.427Z,96185.13
2023-03-07T23:26:30.125Z,96193.03
2023-03-07T23:28:58.636Z,96189.44
2023-03-07T23:31:30.160Z,96192.38
2023-03-07T23:34:00.887Z,96188.75
2023-03-07T23:36:31.281Z,96196.81
2023-03-07T23:39:00.868Z,96189.41
2023-03-07T23:41:29.538Z,96188.56
2023-03-07T23:44:00.208Z,96193.50
2023-03-07T23:46:30.857Z,96200.88
2023-03-07T23:48:59.730Z,96197.41
2023-03-07T23:51:28.134Z,96201.53
2023-03-07T23:53:56.528Z,96199.88
2023-03-07T23:56:24.796Z,96201.00
2023-03-07T23:58:53.817Z,96203.78
